Lochmere, New Hampshire
Current Conditions -  °F | °C
As of 2:55 AM on Sunday 26 Oct 2014 (Local Time) from KLCI Reporting Station
Clear Clear  
Wind Chill: 46°   Ceiling: Unl
Heat Index: 48°   Visibility: 10mi
Dew Point: 43°   Wind: 5mph
Humidity: 82%   Direction: 240°WSW
Pressure: 29.41"   Gusts: NA
Location:  43.47°N, 71.53°W
Report Text: KLCI 260655Z AUTO 24004KT 10SM CLR 09/06 A2941 RMK AO1
Loading
Personal Weather Stations






























Interactive Weather Map
Tropical Storm Tracking
New forecast layout! Learn more

10-Day Weather Forecast

Advertisements
Track Severe Weather on mobile